createdAt,value
2024-03-16T00:00:12.154Z,6.400
2024-03-16T00:01:12.246Z,6.900
2024-03-16T00:02:12.204Z,6.600
2024-03-16T00:03:11.618Z,5.900
2024-03-16T00:04:12.546Z,7.200
2024-03-16T00:05:12.148Z,6.800
2024-03-16T00:06:11.420Z,7.100
2024-03-16T00:07:12.282Z,6.900
2024-03-16T00:08:11.656Z,7.100
2024-03-16T00:09:12.076Z,6.300
2024-03-16T00:10:12.118Z,6.500
2024-03-16T00:11:11.712Z,6.200
2024-03-16T00:12:12.210Z,6.500
2024-03-16T00:13:11.894Z,7.100
2024-03-16T00:14:12.461Z,6.900
2024-03-16T00:15:11.750Z,7.200
2024-03-16T00:16:13.488Z,7.600
2024-03-16T00:17:12.031Z,7.100
2024-03-16T00:18:12.578Z,6.500
2024-03-16T00:19:12.603Z,6.700
2024-03-16T00:20:12.074Z,6.500
2024-03-16T00:21:11.437Z,6.700
2024-03-16T00:22:12.677Z,6.200
2024-03-16T00:23:12.119Z,5.500
2024-03-16T00:24:11.420Z,6.200
2024-03-16T00:25:12.345Z,6.200
2024-03-16T00:26:12.023Z,5.400
2024-03-16T00:27:12.377Z,5.800
2024-03-16T00:28:12.246Z,5.500
2024-03-16T00:29:11.927Z,5.700
2024-03-16T00:30:12.321Z,6.000
2024-03-16T00:31:15.397Z,5.600
2024-03-16T00:32:11.953Z,5.400
2024-03-16T00:33:12.525Z,5.800
2024-03-16T00:34:12.475Z,5.500
2024-03-16T00:35:12.089Z,5.100
2024-03-16T00:36:12.446Z,4.000
2024-03-16T00:37:12.247Z,4.400
2024-03-16T00:38:11.907Z,4.400
2024-03-16T00:39:12.402Z,5.000
2024-03-16T00:40:11.994Z,4.500
2024-03-16T00:41:11.529Z,4.500
2024-03-16T00:42:12.021Z,4.000
2024-03-16T00:43:12.992Z,4.700
2024-03-16T00:44:12.534Z,4.600
2024-03-16T00:45:11.958Z,4.900
2024-03-16T00:46:12.773Z,4.700
2024-03-16T00:47:12.115Z,4.500
2024-03-16T00:48:11.899Z,4.300
2024-03-16T00:49:12.938Z,4.100
2024-03-16T00:50:12.435Z,4.300
2024-03-16T00:51:11.743Z,4.700
2024-03-16T00:52:12.566Z,4.400
2024-03-16T00:53:11.940Z,5.600
2024-03-16T00:54:12.531Z,4.700
2024-03-16T00:55:12.487Z,4.700
2024-03-16T00:56:11.940Z,4.700
2024-03-16T00:57:12.341Z,4.500
2024-03-16T00:58:12.310Z,4.600
2024-03-16T00:59:11.873Z,4.500
2024-03-16T01:00:12.434Z,4.800
2024-03-16T01:01:12.380Z,5.100
2024-03-16T01:03:11.580Z,4.800
2024-03-16T01:04:12.664Z,4.400
2024-03-16T01:05:12.309Z,4.100
2024-03-16T01:07:12.796Z,4.200
2024-03-16T01:08:12.242Z,4.000
2024-03-16T01:09:11.531Z,3.900
2024-03-16T01:10:12.797Z,4.200
2024-03-16T01:11:11.892Z,4.100
2024-03-16T01:12:12.527Z,4.100
2024-03-16T01:13:12.513Z,4.200
2024-03-16T01:14:11.877Z,3.900
2024-03-16T01:15:12.331Z,4.200
2024-03-16T01:16:11.732Z,4.200
2024-03-16T01:17:12.121Z,4.000
2024-03-16T01:18:11.696Z,3.700
2024-03-16T01:19:12.828Z,3.800
2024-03-16T01:20:12.466Z,3.600
2024-03-16T01:22:12.666Z,3.300
2024-03-16T01:23:11.981Z,3.100
2024-03-16T01:24:12.291Z,3.600
2024-03-16T01:25:11.943Z,2.700
2024-03-16T01:26:11.371Z,3.200
2024-03-16T01:27:11.873Z,2.900
2024-03-16T01:28:12.663Z,3.000
2024-03-16T01:29:12.086Z,2.900
2024-03-16T01:30:11.429Z,2.500
2024-03-16T01:31:15.213Z,3.100
2024-03-16T01:32:11.816Z,2.800
2024-03-16T01:33:12.623Z,3.000
2024-03-16T01:34:12.584Z,2.800
2024-03-16T01:35:12.030Z,2.400
2024-03-16T01:36:12.442Z,2.800
2024-03-16T01:37:12.214Z,1.900
2024-03-16T01:38:11.691Z,2.000
2024-03-16T01:39:12.301Z,2.400
2024-03-16T01:40:12.191Z,2.300
2024-03-16T01:41:11.763Z,2.100
2024-03-16T01:42:12.217Z,2.100
2024-03-16T01:43:12.074Z,2.200
2024-03-16T01:44:11.545Z,2.100
2024-03-16T01:45:12.113Z,1.800
2024-03-16T01:46:12.078Z,2.000
2024-03-16T01:47:11.533Z,1.700
2024-03-16T01:48:12.409Z,1.900
2024-03-16T01:49:12.203Z,1.800
2024-03-16T01:52:12.465Z,1.500
2024-03-16T01:53:11.782Z,1.700
2024-03-16T01:54:12.108Z,1.400
2024-03-16T01:55:11.891Z,1.600
2024-03-16T01:56:12.232Z,1.700
2024-03-16T01:57:11.595Z,1.400
2024-03-16T01:58:12.506Z,1.600
2024-03-16T01:59:12.006Z,1.300
2024-03-16T02:00:12.452Z,1.600
2024-03-16T02:01:12.332Z,1.400
2024-03-16T02:02:12.053Z,1.800
2024-03-16T02:03:12.371Z,1.400
2024-03-16T02:04:12.197Z,1.400
2024-03-16T02:05:11.741Z,1.300
2024-03-16T02:06:12.067Z,1.400
2024-03-16T02:07:11.650Z,1.400
2024-03-16T02:08:12.237Z,1.100
2024-03-16T02:09:11.576Z,1.600
2024-03-16T02:10:13.549Z,1.100
2024-03-16T02:11:12.189Z,1.200
2024-03-16T02:12:11.579Z,1.400
2024-03-16T02:13:12.599Z,1.000
2024-03-16T02:14:12.025Z,1.300
2024-03-16T02:15:12.441Z,1.000
2024-03-16T02:16:12.195Z,1.300
2024-03-16T02:17:11.873Z,1.100
2024-03-16T02:18:13.005Z,1.300
2024-03-16T02:19:12.829Z,1.300
2024-03-16T02:20:12.228Z,1.200
2024-03-16T02:22:12.593Z,1.100
2024-03-16T02:23:12.309Z,1.300
2024-03-16T02:24:11.799Z,0.900
2024-03-16T02:25:12.947Z,0.900
2024-03-16T02:26:12.354Z,0.900
2024-03-16T02:28:12.887Z,1.000
2024-03-16T02:29:12.209Z,1.000
2024-03-16T02:30:11.802Z,1.200
2024-03-16T02:31:12.344Z,0.900
2024-03-16T02:32:11.889Z,0.900
2024-03-16T02:33:12.818Z,0.900
2024-03-16T02:34:11.907Z,0.900
2024-03-16T02:35:12.290Z,1.000
2024-03-16T02:36:11.496Z,1.000
2024-03-16T02:37:12.905Z,1.100
2024-03-16T02:38:12.550Z,0.800
2024-03-16T02:40:13.315Z,1.100
2024-03-16T02:41:11.802Z,1.000
2024-03-16T02:42:12.097Z,0.800
2024-03-16T02:43:11.806Z,0.900
2024-03-16T02:44:12.308Z,1.100
2024-03-16T02:45:11.645Z,1.000
2024-03-16T02:46:12.652Z,0.700
2024-03-16T02:47:12.067Z,0.800
2024-03-16T02:48:12.823Z,1.000
2024-03-16T02:49:12.696Z,1.000
2024-03-16T02:51:11.638Z,0.800
2024-03-16T02:52:12.535Z,0.900
2024-03-16T02:53:11.921Z,0.900
2024-03-16T02:54:12.406Z,1.000
2024-03-16T02:55:12.176Z,0.900
2024-03-16T02:56:11.526Z,0.900
2024-03-16T02:57:12.022Z,0.900
2024-03-16T02:58:12.952Z,1.000
2024-03-16T02:59:12.298Z,1.100
2024-03-16T03:00:12.034Z,0.900
2024-03-16T03:01:13.227Z,0.700
2024-03-16T03:02:12.091Z,0.900
2024-03-16T03:03:11.514Z,1.100
2024-03-16T03:04:12.574Z,1.000
2024-03-16T03:05:12.415Z,0.900
2024-03-16T03:06:12.406Z,0.900
2024-03-16T03:07:12.462Z,0.700
2024-03-16T03:08:11.939Z,0.800
2024-03-16T03:09:12.319Z,0.900
2024-03-16T03:10:12.735Z,0.900
2024-03-16T03:12:11.764Z,1.000
2024-03-16T03:13:12.737Z,1.100
2024-03-16T03:14:12.258Z,0.900
2024-03-16T03:15:11.609Z,0.700
2024-03-16T03:16:12.295Z,0.800
2024-03-16T03:17:11.622Z,0.900
2024-03-16T03:18:12.614Z,0.900
2024-03-16T03:19:12.874Z,1.300
2024-03-16T03:20:12.277Z,0.900
2024-03-16T03:21:11.651Z,1.000
2024-03-16T03:22:12.736Z,1.100
2024-03-16T03:23:12.357Z,1.000
2024-03-16T03:25:13.169Z,0.800
2024-03-16T03:26:11.587Z,1.000
2024-03-16T03:27:12.058Z,1.000
2024-03-16T03:28:13.066Z,1.100
2024-03-16T03:29:11.469Z,1.300
2024-03-16T03:30:11.802Z,1.100
2024-03-16T03:31:12.747Z,0.800
2024-03-16T03:32:12.305Z,0.800
2024-03-16T03:33:11.842Z,1.200
2024-03-16T03:34:11.561Z,1.300
2024-03-16T03:35:12.406Z,1.100
2024-03-16T03:36:11.816Z,1.100
2024-03-16T03:37:12.378Z,1.100
2024-03-16T03:38:11.809Z,1.300
2024-03-16T03:39:12.199Z,1.000
2024-03-16T03:40:12.119Z,1.000
2024-03-16T03:41:11.706Z,1.200
2024-03-16T03:42:12.043Z,1.200
2024-03-16T03:43:12.348Z,1.300
2024-03-16T03:45:12.535Z,1.300
2024-03-16T03:46:12.643Z,1.200
2024-03-16T03:47:11.977Z,1.000
2024-03-16T03:48:12.860Z,1.200
2024-03-16T03:50:12.062Z,1.300
2024-03-16T03:51:11.473Z,1.100
2024-03-16T03:52:15.668Z,1.400
2024-03-16T03:53:12.564Z,1.400
2024-03-16T03:54:11.883Z,1.300
2024-03-16T03:55:13.019Z,1.600
2024-03-16T03:56:11.399Z,1.500
2024-03-16T03:57:11.774Z,1.300
2024-03-16T03:58:12.707Z,1.300
2024-03-16T03:59:12.460Z,1.600
2024-03-16T04:01:13.166Z,1.300
2024-03-16T04:02:12.197Z,1.100
2024-03-16T04:03:11.486Z,1.100
2024-03-16T04:04:12.499Z,1.400
2024-03-16T04:05:12.083Z,1.500
2024-03-16T04:06:12.485Z,1.300
2024-03-16T04:07:12.206Z,1.500
2024-03-16T04:08:11.834Z,1.600
2024-03-16T04:09:12.242Z,1.700
2024-03-16T04:10:12.115Z,1.600
2024-03-16T04:11:12.699Z,1.300
2024-03-16T04:12:12.206Z,1.600
2024-03-16T04:14:12.404Z,1.500
2024-03-16T04:15:11.771Z,1.600
2024-03-16T04:16:12.741Z,1.700
2024-03-16T04:18:12.257Z,1.800
2024-03-16T04:19:12.616Z,1.700
2024-03-16T04:20:12.602Z,1.200
2024-03-16T04:21:11.933Z,1.600
2024-03-16T04:22:12.671Z,1.500
2024-03-16T04:23:12.001Z,1.800
2024-03-16T04:24:12.464Z,1.600
2024-03-16T04:25:12.147Z,1.600
2024-03-16T04:26:11.559Z,1.500
2024-03-16T04:27:11.956Z,1.700
2024-03-16T04:28:13.027Z,1.700
2024-03-16T04:29:12.606Z,1.700
2024-03-16T04:30:12.084Z,1.800
2024-03-16T04:31:11.579Z,1.800
2024-03-16T04:32:12.025Z,2.000
2024-03-16T04:33:12.840Z,1.800
2024-03-16T04:34:12.496Z,1.600
2024-03-16T04:35:12.129Z,1.700
2024-03-16T04:36:11.328Z,1.400
2024-03-16T04:37:12.264Z,1.800
2024-03-16T04:38:11.721Z,1.900
2024-03-16T04:39:12.080Z,1.900
2024-03-16T04:40:13.102Z,1.800
2024-03-16T04:41:11.779Z,1.500
2024-03-16T04:42:12.193Z,1.900
2024-03-16T04:43:12.116Z,1.800
2024-03-16T04:44:11.521Z,1.700
2024-03-16T04:45:12.042Z,1.600
2024-03-16T04:46:13.026Z,1.200
2024-03-16T04:47:11.477Z,1.700
2024-03-16T04:48:12.227Z,1.600
2024-03-16T04:49:12.041Z,1.600
2024-03-16T04:50:11.724Z,1.800
2024-03-16T04:51:12.115Z,1.600
2024-03-16T04:52:12.174Z,1.700
2024-03-16T04:53:11.566Z,1.700
2024-03-16T04:54:11.946Z,1.600
2024-03-16T04:55:13.242Z,1.900
2024-03-16T04:56:11.791Z,1.600
2024-03-16T04:57:12.213Z,1.700
2024-03-16T04:58:12.215Z,1.600
2024-03-16T04:59:11.677Z,1.700
2024-03-16T05:00:12.117Z,1.600
2024-03-16T05:01:12.357Z,1.600
2024-03-16T05:02:12.123Z,1.300
2024-03-16T05:04:12.718Z,1.300
2024-03-16T05:05:12.188Z,1.300
2024-03-16T05:06:11.490Z,1.600
2024-03-16T05:07:12.340Z,1.100
2024-03-16T05:08:11.973Z,1.600
2024-03-16T05:09:12.403Z,1.300
2024-03-16T05:10:12.056Z,1.400
2024-03-16T05:11:12.405Z,1.300
2024-03-16T05:12:11.880Z,1.500
2024-03-16T05:13:12.714Z,1.200
2024-03-16T05:14:12.184Z,1.300
2024-03-16T05:16:12.445Z,1.400
2024-03-16T05:17:11.944Z,1.300
2024-03-16T05:18:12.483Z,1.200
2024-03-16T05:19:12.498Z,1.300
2024-03-16T05:20:11.998Z,1.300
2024-03-16T05:21:12.421Z,1.200
2024-03-16T05:22:14.909Z,1.400
2024-03-16T05:23:12.404Z,1.400
2024-03-16T05:24:11.956Z,1.500
2024-03-16T05:25:12.970Z,1.700
2024-03-16T05:27:12.032Z,1.300
2024-03-16T05:28:12.688Z,1.000
2024-03-16T05:29:12.218Z,1.400
2024-03-16T05:30:11.979Z,1.400
2024-03-16T05:31:12.869Z,1.200
2024-03-16T05:32:12.276Z,1.500
2024-03-16T05:33:11.820Z,1.300
2024-03-16T05:34:12.813Z,1.300
2024-03-16T05:35:12.715Z,1.500
2024-03-16T05:36:11.998Z,1.300
2024-03-16T05:37:12.949Z,1.000
2024-03-16T05:38:11.496Z,1.200
2024-03-16T05:39:11.933Z,1.100
2024-03-16T05:40:12.816Z,1.400
2024-03-16T05:41:12.350Z,1.300
2024-03-16T05:42:11.955Z,1.300
2024-03-16T05:43:12.816Z,1.400
2024-03-16T05:44:12.347Z,1.200
2024-03-16T05:45:11.773Z,1.400
2024-03-16T05:46:12.559Z,1.100
2024-03-16T05:47:12.109Z,1.500
2024-03-16T05:48:11.726Z,1.500
2024-03-16T05:49:12.652Z,1.300
2024-03-16T05:50:12.167Z,1.300
2024-03-16T05:52:12.435Z,1.100
2024-03-16T05:53:12.218Z,1.300
2024-03-16T05:54:11.549Z,1.300
2024-03-16T05:55:12.653Z,1.300
2024-03-16T05:56:12.346Z,1.300
2024-03-16T05:58:12.734Z,1.400
2024-03-16T05:59:12.118Z,1.300
2024-03-16T06:00:11.491Z,1.100
2024-03-16T06:01:12.284Z,1.300
2024-03-16T06:02:12.085Z,1.300
2024-03-16T06:03:11.493Z,1.400
2024-03-16T06:04:12.331Z,1.600
2024-03-16T06:05:11.781Z,1.500
2024-03-16T06:06:12.156Z,2.000
2024-03-16T06:07:11.858Z,1.800
2024-03-16T06:08:12.358Z,1.300
2024-03-16T06:09:16.520Z,1.500
2024-03-16T06:10:12.209Z,2.200
2024-03-16T06:11:12.385Z,1.700
2024-03-16T06:12:11.876Z,1.300
2024-03-16T06:13:12.522Z,1.700
2024-03-16T06:14:12.065Z,1.200
2024-03-16T06:15:12.472Z,1.500
2024-03-16T06:16:12.239Z,1.400
2024-03-16T06:17:11.677Z,1.500
2024-03-16T06:18:12.450Z,1.100
2024-03-16T06:19:12.426Z,1.500
2024-03-16T06:20:11.833Z,1.500
2024-03-16T06:21:12.177Z,1.100
2024-03-16T06:22:11.924Z,1.400
2024-03-16T06:23:12.711Z,1.500
2024-03-16T06:24:12.064Z,1.700
2024-03-16T06:25:12.834Z,1.500
2024-03-16T06:26:12.300Z,1.600
2024-03-16T06:27:11.763Z,1.200
2024-03-16T06:28:13.838Z,1.200
2024-03-16T06:29:12.174Z,1.300
2024-03-16T06:30:11.461Z,1.600
2024-03-16T06:31:12.125Z,1.300
2024-03-16T06:32:12.077Z,1.500
2024-03-16T06:33:13.405Z,1.400
2024-03-16T06:34:12.568Z,1.200
2024-03-16T06:35:12.018Z,1.300
2024-03-16T06:36:12.323Z,1.400
2024-03-16T06:37:11.731Z,1.200
2024-03-16T06:38:12.141Z,1.200
2024-03-16T06:39:11.408Z,1.300
2024-03-16T06:40:12.544Z,1.400
2024-03-16T06:41:12.035Z,1.000
2024-03-16T06:42:12.437Z,1.400
2024-03-16T06:43:12.176Z,1.300
2024-03-16T06:44:11.552Z,1.300
2024-03-16T06:45:11.840Z,1.500
2024-03-16T06:46:12.717Z,1.100
2024-03-16T06:47:12.089Z,1.500
2024-03-16T06:48:11.481Z,1.300
2024-03-16T06:49:13.538Z,1.400
2024-03-16T06:50:11.920Z,1.300
2024-03-16T06:51:12.217Z,1.300
2024-03-16T06:52:11.825Z,1.500
2024-03-16T06:53:12.316Z,1.600
2024-03-16T06:54:11.607Z,1.600
2024-03-16T06:55:12.202Z,1.400
2024-03-16T06:56:11.537Z,1.400
2024-03-16T06:57:11.854Z,1.400
2024-03-16T06:58:12.868Z,1.300
2024-03-16T07:00:11.767Z,1.500
2024-03-16T07:01:12.664Z,1.400
2024-03-16T07:02:12.332Z,1.300
2024-03-16T07:03:11.684Z,1.500
2024-03-16T07:04:12.708Z,1.900
2024-03-16T07:05:11.615Z,1.600
2024-03-16T07:06:11.909Z,1.600
2024-03-16T07:07:12.654Z,1.300
2024-03-16T07:08:12.252Z,1.300
2024-03-16T07:09:11.582Z,1.500
2024-03-16T07:10:12.888Z,1.500
2024-03-16T07:11:11.795Z,1.400
2024-03-16T07:12:12.285Z,1.400
2024-03-16T07:13:11.719Z,1.700
2024-03-16T07:14:12.143Z,1.500
2024-03-16T07:15:11.456Z,1.700
2024-03-16T07:16:12.387Z,1.600
2024-03-16T07:17:11.640Z,2.000
2024-03-16T07:18:12.440Z,1.500
2024-03-16T07:19:12.642Z,1.200
2024-03-16T07:21:11.604Z,1.600
2024-03-16T07:22:12.372Z,1.600
2024-03-16T07:23:12.054Z,2.500
2024-03-16T07:24:12.499Z,1.600
2024-03-16T07:25:12.369Z,1.500
2024-03-16T07:28:12.316Z,2.400
2024-03-16T07:29:11.688Z,3.100
2024-03-16T07:30:12.076Z,3.000
2024-03-16T07:31:13.090Z,2.100
2024-03-16T07:32:11.787Z,1.800
2024-03-16T07:33:12.616Z,1.400
2024-03-16T07:34:12.246Z,1.400
2024-03-16T07:35:11.637Z,1.500
2024-03-16T07:36:11.898Z,1.500
2024-03-16T07:37:12.564Z,1.500
2024-03-16T07:38:12.252Z,1.600
2024-03-16T07:39:11.538Z,1.600
2024-03-16T07:40:12.292Z,1.300
2024-03-16T07:41:11.924Z,1.400
2024-03-16T07:42:12.234Z,1.600
2024-03-16T07:43:12.091Z,1.500
2024-03-16T07:44:11.549Z,1.500
2024-03-16T07:45:11.941Z,1.300
2024-03-16T07:46:12.766Z,1.600
2024-03-16T07:47:12.148Z,1.500
2024-03-16T07:48:11.679Z,1.400
2024-03-16T07:49:17.660Z,1.800
2024-03-16T07:51:12.304Z,1.300
2024-03-16T07:52:12.304Z,1.600
2024-03-16T07:53:11.775Z,1.500
2024-03-16T07:54:12.121Z,1.300
2024-03-16T07:55:11.780Z,1.300
2024-03-16T07:56:12.140Z,1.800
2024-03-16T07:57:11.564Z,1.500
2024-03-16T07:58:12.437Z,1.300
2024-03-16T07:59:11.944Z,1.400
2024-03-16T08:01:12.218Z,1.700
2024-03-16T08:02:11.883Z,1.700
2024-03-16T08:03:12.033Z,1.500
2024-03-16T08:04:11.624Z,1.300
2024-03-16T08:05:12.050Z,1.400
2024-03-16T08:06:12.384Z,1.400
2024-03-16T08:07:11.874Z,1.700
2024-03-16T08:08:12.364Z,1.700
2024-03-16T08:09:11.722Z,1.600
2024-03-16T08:10:12.437Z,1.300
2024-03-16T08:11:12.188Z,1.500
2024-03-16T08:12:11.567Z,1.500
2024-03-16T08:13:12.941Z,1.400
2024-03-16T08:14:12.630Z,1.200
2024-03-16T08:15:11.963Z,1.300
2024-03-16T08:16:13.011Z,1.400
2024-03-16T08:17:11.617Z,1.200
2024-03-16T08:18:12.344Z,1.400
2024-03-16T08:19:12.504Z,1.600
2024-03-16T08:20:15.413Z,1.400
2024-03-16T08:21:15.832Z,1.300
2024-03-16T08:22:12.737Z,1.000
2024-03-16T08:24:11.692Z,1.300
2024-03-16T08:25:12.503Z,1.200
2024-03-16T08:26:11.785Z,1.100
2024-03-16T08:27:12.076Z,1.000
2024-03-16T08:28:12.938Z,1.200
2024-03-16T08:29:12.439Z,1.200
2024-03-16T08:30:12.002Z,1.300
2024-03-16T08:31:12.707Z,1.200
2024-03-16T08:32:12.195Z,1.100
2024-03-16T08:34:12.149Z,1.300
2024-03-16T08:35:11.607Z,1.200
2024-03-16T08:36:12.023Z,1.300
2024-03-16T08:37:15.026Z,1.800
2024-03-16T08:38:11.559Z,1.700
2024-03-16T08:39:12.064Z,1.400
2024-03-16T08:40:13.671Z,1.400
2024-03-16T08:41:14.293Z,1.000
2024-03-16T08:42:11.978Z,1.300
2024-03-16T08:43:11.743Z,1.600
2024-03-16T08:44:12.145Z,1.400
2024-03-16T08:47:12.029Z,1.500
2024-03-16T08:48:12.942Z,1.600
2024-03-16T08:49:11.849Z,1.400
2024-03-16T08:50:12.488Z,1.600
2024-03-16T08:51:11.829Z,1.500
2024-03-16T08:52:12.648Z,1.700
2024-03-16T08:53:12.362Z,1.400
2024-03-16T08:54:11.739Z,1.600
2024-03-16T08:55:12.926Z,1.800
2024-03-16T08:56:12.464Z,1.600
2024-03-16T08:58:12.156Z,2.000
2024-03-16T08:59:11.710Z,1.800
2024-03-16T09:00:12.101Z,1.600
2024-03-16T09:01:12.311Z,1.800
2024-03-16T09:03:12.358Z,2.100
2024-03-16T09:04:11.820Z,1.900
2024-03-16T09:05:12.530Z,1.900
2024-03-16T09:06:11.788Z,2.500
2024-03-16T09:07:12.504Z,2.100
2024-03-16T09:08:12.044Z,2.400
2024-03-16T09:09:12.412Z,2.000
2024-03-16T09:10:12.910Z,1.700
2024-03-16T09:11:11.723Z,2.600
2024-03-16T09:12:12.088Z,2.400
2024-03-16T09:13:11.646Z,2.400
2024-03-16T09:14:12.146Z,2.000
2024-03-16T09:15:11.642Z,1.900
2024-03-16T09:16:13.069Z,2.400
2024-03-16T09:17:11.624Z,2.200
2024-03-16T09:18:12.425Z,2.100
2024-03-16T09:19:12.398Z,2.400
2024-03-16T09:20:12.760Z,2.400
2024-03-16T09:21:12.566Z,2.200
2024-03-16T09:22:12.299Z,2.300
2024-03-16T09:23:11.744Z,2.000
2024-03-16T09:24:12.037Z,2.200
2024-03-16T09:25:13.487Z,2.100
2024-03-16T09:26:11.911Z,2.200
2024-03-16T09:27:12.223Z,2.200
2024-03-16T09:28:11.799Z,2.100
2024-03-16T09:29:12.230Z,2.000
2024-03-16T09:30:11.612Z,2.100
2024-03-16T09:31:12.388Z,2.400
2024-03-16T09:32:11.888Z,2.600
2024-03-16T09:33:12.594Z,2.300
2024-03-16T09:34:12.440Z,2.300
2024-03-16T09:35:12.259Z,2.300
2024-03-16T09:36:11.734Z,2.200
2024-03-16T09:37:12.290Z,2.400
2024-03-16T09:38:11.849Z,2.500
2024-03-16T09:39:12.228Z,2.400
2024-03-16T09:40:12.311Z,2.500
2024-03-16T09:41:12.132Z,2.300
2024-03-16T09:42:11.441Z,2.700
2024-03-16T09:46:28.687Z,2.200
2024-03-16T09:49:49.774Z,2.300
2024-03-16T09:51:56.736Z,2.000
2024-03-16T09:55:19.903Z,2.200
2024-03-16T09:56:47.504Z,1.900
2024-03-16T09:58:26.254Z,2.000
2024-03-16T10:08:00.339Z,2.100
2024-03-16T10:08:19.795Z,2.100
2024-03-16T10:09:23.805Z,2.100
2024-03-16T10:13:57.778Z,2.000
2024-03-16T10:15:11.302Z,2.300
2024-03-16T10:18:38.730Z,2.200
2024-03-16T10:27:11.178Z,2.300
2024-03-16T10:28:18.384Z,1.700
2024-03-16T10:30:21.653Z,2.000
2024-03-16T10:32:03.065Z,2.300
2024-03-16T10:33:21.794Z,2.600
2024-03-16T10:36:50.015Z,1.900
2024-03-16T10:43:29.450Z,2.100
2024-03-16T10:44:26.555Z,2.000
2024-03-16T10:49:00.540Z,2.600
2024-03-16T10:50:58.850Z,2.300
2024-03-16T10:55:48.029Z,2.100
2024-03-16T10:58:22.346Z,2.300
2024-03-16T11:03:29.796Z,1.700
2024-03-16T11:15:41.603Z,1.600
2024-03-16T11:17:37.431Z,1.400
2024-03-16T11:23:22.590Z,1.300
2024-03-16T11:27:37.831Z,1.600
2024-03-16T11:29:10.419Z,2.000
2024-03-16T11:38:45.306Z,1.700
2024-03-16T11:40:37.819Z,2.500
2024-03-16T11:41:40.835Z,2.000
2024-03-16T11:43:03.361Z,1.900
2024-03-16T11:45:00.884Z,2.100
2024-03-16T11:46:16.944Z,1.600
2024-03-16T11:49:29.637Z,2.200
2024-03-16T11:50:38.138Z,2.100
2024-03-16T11:51:41.193Z,2.200
2024-03-16T11:53:45.545Z,2.300
2024-03-16T11:55:17.025Z,2.100
2024-03-16T12:00:34.943Z,2.500
2024-03-16T12:05:53.176Z,2.300
2024-03-16T12:07:21.260Z,2.000
2024-03-16T12:08:25.107Z,2.100
2024-03-16T12:09:25.168Z,2.400
2024-03-16T12:15:28.739Z,1.600
2024-03-16T12:18:45.884Z,1.100
2024-03-16T12:25:02.763Z,1.300
2024-03-16T12:27:12.545Z,1.400
2024-03-16T12:32:49.805Z,1.500
2024-03-16T12:37:19.257Z,1.800
2024-03-16T12:38:21.512Z,1.900
2024-03-16T12:39:53.565Z,2.100
2024-03-16T12:43:24.757Z,1.800
2024-03-16T12:45:11.651Z,2.100
2024-03-16T12:48:21.850Z,1.900
2024-03-16T12:50:12.695Z,1.700
2024-03-16T12:57:26.244Z,1.700
2024-03-16T13:07:05.248Z,1.900
2024-03-16T13:09:31.339Z,2.000
2024-03-16T13:10:34.569Z,2.000
2024-03-16T13:11:34.698Z,2.300
2024-03-16T13:14:30.681Z,2.200
2024-03-16T13:15:50.929Z,1.900
2024-03-16T13:20:57.309Z,1.600
2024-03-16T13:23:28.254Z,1.800
2024-03-16T13:29:32.521Z,1.700
2024-03-16T13:35:50.215Z,1.600
2024-03-16T13:37:01.414Z,1.600
2024-03-16T13:39:54.589Z,2.000
2024-03-16T13:41:25.974Z,1.600
2024-03-16T13:42:31.708Z,1.500
2024-03-16T13:44:07.038Z,1.600
2024-03-16T13:45:34.322Z,1.400
2024-03-16T13:48:31.381Z,1.500
2024-03-16T13:49:47.554Z,1.600
2024-03-16T13:51:53.755Z,1.900
2024-03-16T14:05:14.635Z,2.100
2024-03-16T14:06:45.537Z,1.800
2024-03-16T14:07:58.098Z,1.400
2024-03-16T14:11:11.853Z,0.700
2024-03-16T14:12:35.447Z,0.800
2024-03-16T14:13:38.013Z,0.900
2024-03-16T14:19:57.245Z,1.000
2024-03-16T14:22:43.861Z,1.300
2024-03-16T14:23:44.970Z,1.400
2024-03-16T14:26:20.403Z,1.300
2024-03-16T14:28:59.553Z,1.800
2024-03-16T14:34:51.113Z,2.200
2024-03-16T14:36:45.669Z,2.400
2024-03-16T14:42:52.642Z,2.500
2024-03-16T14:44:20.814Z,3.200
2024-03-16T14:45:26.297Z,2.800
2024-03-16T14:47:02.125Z,3.000
2024-03-16T15:04:44.582Z,3.400
2024-03-16T15:05:52.132Z,3.800
2024-03-16T15:07:18.216Z,3.300
2024-03-16T15:08:21.383Z,3.600
2024-03-16T15:09:41.759Z,3.600
2024-03-16T15:10:55.329Z,4.400
2024-03-16T15:12:22.622Z,4.200
2024-03-16T15:15:56.673Z,3.900
2024-03-16T15:17:10.022Z,4.400
2024-03-16T15:21:07.412Z,4.500
2024-03-16T15:22:43.421Z,5.000
2024-03-16T15:26:36.768Z,4.500
2024-03-16T15:27:52.776Z,4.200
2024-03-16T15:28:54.242Z,4.500
2024-03-16T15:31:30.401Z,4.500
2024-03-16T15:32:45.782Z,4.100
2024-03-16T15:33:49.994Z,4.500
2024-03-16T15:35:28.099Z,5.200
2024-03-16T15:37:19.732Z,4.600
2024-03-16T15:40:06.089Z,4.700
2024-03-16T15:41:20.746Z,5.000
2024-03-16T15:42:24.860Z,5.100
2024-03-16T15:45:43.300Z,5.100
2024-03-16T15:46:43.376Z,4.700
2024-03-16T15:47:43.898Z,5.400
2024-03-16T15:50:22.148Z,5.800
2024-03-16T15:51:35.381Z,4.400
2024-03-16T15:55:25.556Z,5.200
2024-03-16T16:00:07.247Z,5.100
2024-03-16T16:01:11.204Z,4.600
2024-03-16T16:02:34.250Z,5.000
2024-03-16T16:06:25.439Z,4.700
2024-03-16T16:07:25.683Z,4.400
2024-03-16T16:08:40.491Z,5.100
2024-03-16T16:12:34.129Z,5.000
2024-03-16T16:14:02.906Z,5.300
2024-03-16T16:15:06.885Z,5.800
2024-03-16T16:16:06.533Z,5.200
2024-03-16T16:17:24.168Z,5.500
2024-03-16T16:18:27.374Z,5.600
2024-03-16T16:22:02.356Z,5.400
2024-03-16T16:23:06.556Z,8.300
2024-03-16T16:24:17.042Z,6.500
2024-03-16T16:27:10.876Z,5.800
2024-03-16T16:31:47.525Z,5.700
2024-03-16T16:36:26.923Z,5.900
2024-03-16T16:37:26.909Z,6.300
2024-03-16T16:40:21.174Z,6.500
2024-03-16T16:40:48.596Z,6.800
2024-03-16T16:41:48.786Z,6.300
2024-03-16T16:46:15.055Z,6.200
2024-03-16T16:51:24.747Z,6.300
2024-03-16T16:52:52.013Z,5.600
2024-03-16T16:55:31.030Z,5.500
2024-03-16T16:59:53.290Z,5.700
2024-03-16T17:01:09.427Z,5.500
2024-03-16T17:04:12.102Z,5.400
2024-03-16T17:08:11.745Z,5.300
2024-03-16T17:11:34.953Z,5.400
2024-03-16T17:16:15.276Z,5.600
2024-03-16T17:17:42.046Z,5.900
2024-03-16T17:19:02.133Z,5.600
2024-03-16T17:20:18.972Z,6.000
2024-03-16T17:21:21.976Z,6.000
2024-03-16T17:25:57.069Z,6.100
2024-03-16T17:27:29.098Z,6.400
2024-03-16T17:28:39.148Z,5.700
2024-03-16T17:29:47.709Z,5.600
2024-03-16T17:30:50.903Z,5.700
2024-03-16T17:33:31.355Z,5.400
2024-03-16T17:41:02.393Z,4.900
2024-03-16T17:44:12.139Z,5.800
2024-03-16T17:50:19.470Z,5.200
2024-03-16T17:51:37.410Z,4.600
2024-03-16T17:54:04.638Z,4.900
2024-03-16T17:55:12.008Z,5.600
2024-03-16T17:58:22.706Z,4.800
2024-03-16T18:03:15.525Z,4.800
2024-03-16T18:05:39.973Z,5.300
2024-03-16T18:07:44.881Z,5.100
2024-03-16T18:11:56.755Z,5.400
2024-03-16T18:13:57.469Z,5.700
2024-03-16T18:18:20.058Z,5.700
2024-03-16T18:19:16.343Z,5.700
2024-03-16T18:20:27.423Z,5.800
2024-03-16T18:22:19.019Z,5.600
2024-03-16T18:23:27.254Z,5.500
2024-03-16T18:24:23.098Z,5.200
2024-03-16T18:26:02.971Z,5.600
2024-03-16T18:34:36.208Z,5.400
2024-03-16T18:40:28.156Z,5.000
2024-03-16T18:41:36.638Z,5.900
2024-03-16T18:42:38.592Z,5.300
2024-03-16T18:43:44.194Z,5.400
2024-03-16T18:46:58.759Z,5.800
2024-03-16T18:50:55.519Z,6.700
2024-03-16T18:52:19.710Z,6.400
2024-03-16T18:53:45.188Z,5.900
2024-03-16T18:56:39.547Z,6.100
2024-03-16T18:57:42.520Z,5.700
2024-03-16T18:59:11.337Z,5.700
2024-03-16T19:04:00.971Z,5.500
2024-03-16T19:05:36.314Z,5.300
2024-03-16T19:06:38.790Z,4.900
2024-03-16T19:07:38.975Z,5.300
2024-03-16T19:09:05.196Z,5.200
2024-03-16T19:12:26.282Z,5.000
2024-03-16T19:15:04.935Z,5.500
2024-03-16T19:18:05.120Z,4.900
2024-03-16T19:19:06.371Z,5.600
2024-03-16T19:25:01.236Z,5.300
2024-03-16T19:38:39.926Z,5.200
2024-03-16T19:40:51.546Z,4.400
2024-03-16T19:45:01.702Z,4.700
2024-03-16T19:46:52.270Z,4.900
2024-03-16T19:48:17.070Z,4.500
2024-03-16T19:49:52.533Z,3.900
2024-03-16T19:50:54.717Z,4.300
2024-03-16T19:52:08.636Z,4.600
2024-03-16T19:53:10.595Z,4.200
2024-03-16T19:54:34.118Z,4.200
2024-03-16T19:55:34.030Z,3.400
2024-03-16T19:56:33.950Z,3.600
2024-03-16T19:57:34.214Z,4.400
2024-03-16T20:00:05.421Z,3.900
2024-03-16T20:01:13.205Z,4.400
2024-03-16T20:03:33.861Z,4.100
2024-03-16T20:05:04.405Z,3.900